createdAt,value
2018-12-27T18:47:24.750Z,42.99
2018-12-27T18:48:24.735Z,42.69
2018-12-27T18:49:55.190Z,42.27
2018-12-27T18:50:55.167Z,41.77
2018-12-27T18:52:25.633Z,41.89
2018-12-27T18:53:25.623Z,41.50
2018-12-27T18:54:56.118Z,41.69
2018-12-27T18:55:56.068Z,41.69
2018-12-27T18:57:26.536Z,41.30
2018-12-27T18:58:26.528Z,41.19
2018-12-27T18:59:56.996Z,41.19
2018-12-27T19:00:56.980Z,41.91
2018-12-27T19:02:27.434Z,41.80
2018-12-27T19:03:27.426Z,41.89
2018-12-27T19:04:57.928Z,41.71
2018-12-27T19:05:57.880Z,41.80
2018-12-27T19:07:32.713Z,42.11
2018-12-27T19:08:32.690Z,42.10
2018-12-27T19:10:03.159Z,42.11
2018-12-27T19:11:03.135Z,41.41
2018-12-27T19:12:33.621Z,41.61
2018-12-27T19:13:33.608Z,41.52
2018-12-27T19:15:04.079Z,41.41
2018-12-27T19:16:04.053Z,41.22
2018-12-27T19:17:34.542Z,41.31
2018-12-27T19:18:34.514Z,41.41
2018-12-27T19:20:04.992Z,41.31
2018-12-27T19:21:04.955Z,41.11
2018-12-27T19:22:35.421Z,41.41
2018-12-27T19:23:35.405Z,41.61
2018-12-27T19:25:05.876Z,41.31
2018-12-27T19:26:05.861Z,41.61
2018-12-27T19:27:05.839Z,41.52
2018-12-27T19:28:05.831Z,41.41
2018-12-27T19:29:05.817Z,41.52
2018-12-27T19:30:05.836Z,41.41
2018-12-27T19:31:05.796Z,41.11
2018-12-27T19:32:05.787Z,41.31
2018-12-27T19:33:05.776Z,40.52
2018-12-27T19:34:05.765Z,41.22
2018-12-27T19:35:05.758Z,40.42
2018-12-27T19:36:05.818Z,41.14
2018-12-27T19:37:05.732Z,41.33
2018-12-27T19:38:05.727Z,40.34
2018-12-27T19:39:05.709Z,40.34
2018-12-27T19:40:05.722Z,40.64
2018-12-27T19:41:05.698Z,40.64
2018-12-27T19:42:05.676Z,40.44
2018-12-27T19:43:05.671Z,40.64
2018-12-27T19:44:05.653Z,40.64
2018-12-27T19:45:05.649Z,40.64
2018-12-27T19:46:05.634Z,40.64
2018-12-27T19:47:05.634Z,40.53
2018-12-27T19:48:05.676Z,40.44
2018-12-27T19:49:05.610Z,40.53
2018-12-27T19:50:05.596Z,40.53
2018-12-27T19:51:05.593Z,40.83
2018-12-27T19:52:05.597Z,40.44
2018-12-27T19:53:05.566Z,40.94
2018-12-27T19:54:05.554Z,40.64
2018-12-27T19:55:05.551Z,41.14
2018-12-27T19:56:05.537Z,40.53
2018-12-27T19:57:05.527Z,40.64
2018-12-27T19:58:05.519Z,40.64
2018-12-27T19:59:05.531Z,41.03
2018-12-27T20:00:05.486Z,40.83
2018-12-27T20:01:05.488Z,40.83
2018-12-27T20:02:05.491Z,40.64
2018-12-27T20:03:05.464Z,40.66
2018-12-27T20:04:05.459Z,40.73
2018-12-27T20:05:05.430Z,40.83
2018-12-27T20:06:05.428Z,40.66
2018-12-27T20:07:05.436Z,40.66
2018-12-27T20:08:05.402Z,40.66
2018-12-27T20:09:05.400Z,40.86
2018-12-27T20:10:05.382Z,40.86
2018-12-27T20:11:05.364Z,40.56
2018-12-27T20:12:05.359Z,40.73
2018-12-27T20:13:05.397Z,40.66
2018-12-27T20:14:05.341Z,40.75
2018-12-27T20:15:05.323Z,40.86
2018-12-27T20:16:05.311Z,40.95
2018-12-27T20:17:05.305Z,40.86
2018-12-27T20:18:05.295Z,40.56
2018-12-27T20:19:05.281Z,40.66
2018-12-27T20:20:05.289Z,40.66
2018-12-27T20:21:05.256Z,40.66
2018-12-27T20:22:05.248Z,40.56
2018-12-27T20:23:05.731Z,40.56
2018-12-27T20:24:05.223Z,40.86
2018-12-27T20:25:05.218Z,40.25
2018-12-27T20:26:05.208Z,40.53
2018-12-27T20:27:05.198Z,40.75
2018-12-27T20:28:05.181Z,40.56
2018-12-27T20:29:05.176Z,40.86
2018-12-27T20:30:05.155Z,40.86
2018-12-27T20:31:05.151Z,40.45
2018-12-27T20:32:05.133Z,40.25
2018-12-27T20:33:05.130Z,40.45
2018-12-27T20:34:05.106Z,40.75
2018-12-27T20:35:05.099Z,40.75
2018-12-27T20:36:05.085Z,40.75
2018-12-27T20:37:05.077Z,40.45
2018-12-27T20:38:06.739Z,40.45
2018-12-27T20:39:05.054Z,40.25
2018-12-27T20:40:05.052Z,40.45
2018-12-27T20:41:05.041Z,40.25
2018-12-27T20:42:05.021Z,40.36
2018-12-27T20:43:05.015Z,40.86
2018-12-27T20:44:05.005Z,40.25
2018-12-27T20:45:04.997Z,40.36
2018-12-27T20:46:05.008Z,40.86
2018-12-27T20:47:04.973Z,40.86
2018-12-27T20:48:04.963Z,40.86
2018-12-27T20:49:04.971Z,40.86
2018-12-27T20:50:04.934Z,40.86
2018-12-27T20:51:04.949Z,40.86
2018-12-27T20:52:04.914Z,40.88
2018-12-27T20:53:04.901Z,40.86
2018-12-27T20:54:04.918Z,40.75
2018-12-27T20:55:04.876Z,40.75
2018-12-27T20:56:04.871Z,40.75
2018-12-27T20:57:04.858Z,40.45
2018-12-27T20:58:04.845Z,40.16
2018-12-27T20:59:04.834Z,40.56
2018-12-27T21:00:04.826Z,40.86
2018-12-27T21:01:04.818Z,40.67
2018-12-27T21:02:04.814Z,40.78
2018-12-27T21:03:04.798Z,40.67
2018-12-27T21:04:04.779Z,40.66
2018-12-27T21:05:04.791Z,40.75
2018-12-27T21:06:04.771Z,40.88
2018-12-27T21:07:04.756Z,40.78
2018-12-27T21:08:04.748Z,40.56
2018-12-27T21:09:04.745Z,40.45
2018-12-27T21:10:04.730Z,40.45
2018-12-27T21:11:04.716Z,40.78
2018-12-27T21:12:04.734Z,40.86
2018-12-27T21:13:04.713Z,41.88
2018-12-27T21:14:24.387Z,42.95
2018-12-27T21:15:24.343Z,42.15
2018-12-27T21:16:54.834Z,42.46
2018-12-27T21:17:54.824Z,42.46
2018-12-27T21:19:25.272Z,42.65
2018-12-27T21:20:25.256Z,42.65
2018-12-27T21:21:55.735Z,42.15
2018-12-27T21:22:55.727Z,42.35
2018-12-27T21:24:26.202Z,42.65
2018-12-27T21:25:26.195Z,42.55
2018-12-27T21:26:56.639Z,42.25
2018-12-27T21:27:56.622Z,42.97
2018-12-27T21:29:27.101Z,43.25
2018-12-27T21:30:27.073Z,43.48
2018-12-27T21:31:57.604Z,42.85
2018-12-27T21:32:57.527Z,43.07
2018-12-27T21:33:57.514Z,42.77
2018-12-27T21:34:57.505Z,42.77
2018-12-27T21:35:57.489Z,42.87
2018-12-27T21:36:57.487Z,42.77
2018-12-27T21:37:57.477Z,42.68
2018-12-27T21:38:57.472Z,44.78
2018-12-27T21:39:57.449Z,43.77
2018-12-27T21:40:57.455Z,44.17
2018-12-27T21:41:57.426Z,43.65
2018-12-27T21:42:57.415Z,43.95
2018-12-27T21:43:57.410Z,43.65
2018-12-27T21:44:57.405Z,43.55
2018-12-27T21:45:57.390Z,43.85
2018-12-27T21:46:57.391Z,43.75
2018-12-27T21:47:57.364Z,43.63
2018-12-27T21:48:57.351Z,43.63
2018-12-27T21:49:57.362Z,43.73
2018-12-27T21:50:57.357Z,43.83
2018-12-27T21:51:57.369Z,43.93
2018-12-27T21:52:57.398Z,43.51
2018-12-27T21:53:57.343Z,43.71
2018-12-27T21:54:57.286Z,43.31
2018-12-27T21:55:57.277Z,43.71
2018-12-27T21:56:57.264Z,43.81
2018-12-27T21:57:57.259Z,43.41
2018-12-27T21:58:57.353Z,42.61
2018-12-27T21:59:57.235Z,42.71
2018-12-27T22:00:57.239Z,42.81
2018-12-27T22:01:57.229Z,43.51
2018-12-27T22:02:57.196Z,42.79
2018-12-27T22:03:57.195Z,42.61
2018-12-27T22:04:57.186Z,42.89
2018-12-27T22:05:57.197Z,42.69
2018-12-27T22:06:57.170Z,42.79
2018-12-27T22:07:57.162Z,42.89
2018-12-27T22:08:57.137Z,42.79
2018-12-27T22:09:57.130Z,43.29
2018-12-27T22:10:57.120Z,42.79
2018-12-27T22:11:57.114Z,42.99
2018-12-27T22:12:57.095Z,42.59
2018-12-27T22:13:57.086Z,42.40
2018-12-27T22:14:57.080Z,41.50
2018-12-27T22:15:57.376Z,42.40
2018-12-27T22:16:57.054Z,42.10
2018-12-27T22:17:57.047Z,41.99
2018-12-27T22:18:57.038Z,42.37
2018-12-27T22:19:57.033Z,41.97
2018-12-27T22:20:57.048Z,42.57
2018-12-27T22:21:57.001Z,42.27
2018-12-27T22:22:57.005Z,41.97
2018-12-27T22:23:56.977Z,42.37
2018-12-27T22:24:56.982Z,42.67
2018-12-27T22:25:56.996Z,42.27
2018-12-27T22:26:56.956Z,42.10
2018-12-27T22:27:56.938Z,42.59
2018-12-27T22:28:56.931Z,42.79
2018-12-27T22:29:56.920Z,42.69
2018-12-27T22:30:56.906Z,42.89
2018-12-27T22:31:56.899Z,42.99
2018-12-27T22:32:56.911Z,43.79
2018-12-27T22:33:56.875Z,42.59
2018-12-27T22:34:56.858Z,42.59
2018-12-27T22:35:56.856Z,42.99
2018-12-27T22:36:56.937Z,42.89
2018-12-27T22:37:56.836Z,42.99
2018-12-27T22:38:56.819Z,42.99
2018-12-27T22:39:56.807Z,43.19
2018-12-27T22:40:56.801Z,43.29
2018-12-27T22:41:56.864Z,43.19
2018-12-27T22:42:56.789Z,42.89
2018-12-27T22:43:56.793Z,43.07
2018-12-27T22:44:56.756Z,43.19
2018-12-27T22:45:56.749Z,42.69
2018-12-27T22:46:56.730Z,42.97
2018-12-27T22:47:56.726Z,42.79
2018-12-27T22:48:56.711Z,43.29
2018-12-27T22:49:56.758Z,43.09
2018-12-27T22:50:56.690Z,42.69
2018-12-27T22:51:56.673Z,42.67
2018-12-27T22:52:56.665Z,42.77
2018-12-27T22:53:56.658Z,42.67
2018-12-27T22:54:56.642Z,42.77
2018-12-27T22:55:56.729Z,42.87
2018-12-27T22:56:56.640Z,43.07
2018-12-27T22:57:56.619Z,42.57
2018-12-27T22:58:56.609Z,42.77
2018-12-27T22:59:56.602Z,42.65
2018-12-27T23:00:56.589Z,42.47
2018-12-27T23:01:56.582Z,42.97
2018-12-27T23:02:56.561Z,42.18
2018-12-27T23:03:56.558Z,42.35
2018-12-27T23:04:56.545Z,43.05
2018-12-27T23:05:56.536Z,42.65
2018-12-27T23:06:56.526Z,42.55
2018-12-27T23:07:56.518Z,42.45
2018-12-27T23:08:56.531Z,41.47
2018-12-27T23:09:56.486Z,41.96
2018-12-27T23:10:56.477Z,41.66
2018-12-27T23:11:56.463Z,42.35
2018-12-27T23:12:56.455Z,41.66
2018-12-27T23:13:56.449Z,42.45
2018-12-27T23:14:56.431Z,41.46
2018-12-27T23:15:56.423Z,42.45
2018-12-27T23:16:56.411Z,41.66
2018-12-27T23:17:56.411Z,43.05
2018-12-27T23:18:56.390Z,42.35
2018-12-27T23:19:56.381Z,41.96
2018-12-27T23:20:56.561Z,42.65
2018-12-27T23:21:56.358Z,42.65
2018-12-27T23:22:56.348Z,42.45
2018-12-27T23:23:56.344Z,42.25
2018-12-27T23:24:56.337Z,42.55
2018-12-27T23:25:57.635Z,42.23
2018-12-27T23:26:56.318Z,42.55
2018-12-27T23:27:56.300Z,41.96
2018-12-27T23:28:56.292Z,42.43
2018-12-27T23:29:56.280Z,41.74
2018-12-27T23:30:56.278Z,42.93
2018-12-27T23:31:56.259Z,42.75
2018-12-27T23:32:56.246Z,42.73
2018-12-27T23:33:56.236Z,42.55
2018-12-27T23:34:56.221Z,43.52
2018-12-27T23:35:56.212Z,42.55
2018-12-27T23:36:56.202Z,42.55
2018-12-27T23:37:56.191Z,43.13
2018-12-27T23:38:56.191Z,42.63
2018-12-27T23:39:56.181Z,42.63
2018-12-27T23:40:56.160Z,43.13
2018-12-27T23:41:56.145Z,42.63
2018-12-27T23:42:56.138Z,42.73
2018-12-27T23:43:56.133Z,42.93
2018-12-27T23:44:56.115Z,42.43
2018-12-27T23:45:56.136Z,43.33
2018-12-27T23:46:56.099Z,42.93
2018-12-27T23:47:56.081Z,41.53
2018-12-27T23:48:56.076Z,42.73
2018-12-27T23:49:56.063Z,42.73
2018-12-27T23:50:56.054Z,43.03
2018-12-27T23:51:56.038Z,42.73
2018-12-27T23:52:56.029Z,42.33
2018-12-27T23:53:56.018Z,42.61
2018-12-27T23:54:56.042Z,42.51
2018-12-27T23:55:56.001Z,42.71
2018-12-27T23:56:55.984Z,42.53
2018-12-27T23:57:55.976Z,42.91
2018-12-27T23:58:55.967Z,42.91
2018-12-27T23:59:55.958Z,42.61
